Betsey, Kentucky
Current Conditions -  °F | °C
As of 3:38 PM on Monday 26 Jan 2015 (Local Time) from KEKQ Reporting Station
Overcast Overcast  
Wind Chill: 23°   Ceiling: 1600
Heat Index: 30°   Visibility: 10mi
Dew Point: 27°   Wind: 7mph
Humidity: 86%   Direction: 310°NW
Pressure: 29.93"   Gusts: NA
Location:  36.8129°N, 84.8215°W
Report Text: KEKQ 262038Z AUTO 31006KT 10SM OVC016 M01/M03 A2993 RMK AO2
Loading
Personal Weather Stations






























Interactive Weather Map New forecast layout! Learn more

10-Day Weather Forecast

Advertisements
Track Severe Weather on mobile